sensor_id;sensor_type;location;lat;lon;timestamp;P1;durP1;ratioP1;P2;durP2;ratioP2
19727;SDS011;10015;52.530;13.390;2022-11-13T06:35:30;32.77;;;16.17;;
19727;SDS011;10015;52.530;13.390;2022-11-13T06:38:14;31.17;;;16.70;;
19727;SDS011;10015;52.530;13.390;2022-11-13T06:40:59;30.63;;;16.33;;
19727;SDS011;10015;52.530;13.390;2022-11-13T06:43:45;28.17;;;14.73;;
19727;SDS011;10015;52.530;13.390;2022-11-13T06:46:30;27.47;;;13.30;;
19727;SDS011;10015;52.530;13.390;2022-11-13T06:49:15;22.27;;;13.00;;
19727;SDS011;10015;52.530;13.390;2022-11-13T06:51:59;24.87;;;13.90;;
19727;SDS011;10015;52.530;13.390;2022-11-13T06:54:43;23.03;;;13.17;;
19727;SDS011;10015;52.530;13.390;2022-11-13T06:57:28;22.57;;;13.03;;
19727;SDS011;10015;52.530;13.390;2022-11-13T07:00:13;25.10;;;13.73;;
19727;SDS011;10015;52.530;13.390;2022-11-13T07:02:58;24.87;;;13.30;;
19727;SDS011;10015;52.530;13.390;2022-11-13T07:05:43;24.10;;;11.50;;
19727;SDS011;10015;52.530;13.390;2022-11-13T07:08:28;26.60;;;12.30;;
19727;SDS011;10015;52.530;13.390;2022-11-13T07:11:17;22.67;;;11.10;;
19727;SDS011;10015;52.530;13.390;2022-11-13T07:14:03;22.27;;;12.13;;
19727;SDS011;10015;52.530;13.390;2022-11-13T07:16:48;23.77;;;11.43;;
19727;SDS011;10015;52.530;13.390;2022-11-13T07:19:32;20.60;;;10.50;;
19727;SDS011;10015;52.530;13.390;2022-11-13T07:22:16;23.60;;;11.50;;
19727;SDS011;10015;52.530;13.390;2022-11-13T07:25:01;23.40;;;10.90;;
19727;SDS011;10015;52.530;13.390;2022-11-13T07:27:49;21.40;;;11.33;;
19727;SDS011;10015;52.530;13.390;2022-11-13T07:30:34;23.17;;;12.87;;
19727;SDS011;10015;52.530;13.390;2022-11-13T07:33:18;26.73;;;13.57;;
19727;SDS011;10015;52.530;13.390;2022-11-13T07:36:03;27.20;;;13.53;;
19727;SDS011;10015;52.530;13.390;2022-11-13T07:38:50;25.37;;;12.87;;
19727;SDS011;10015;52.530;13.390;2022-11-13T07:41:35;26.30;;;13.93;;
19727;SDS011;10015;52.530;13.390;2022-11-13T07:44:20;27.10;;;13.60;;
19727;SDS011;10015;52.530;13.390;2022-11-13T07:47:04;26.80;;;13.10;;
19727;SDS011;10015;52.530;13.390;2022-11-13T07:49:48;28.77;;;14.23;;
19727;SDS011;10015;52.530;13.390;2022-11-13T07:52:33;27.43;;;14.17;;
19727;SDS011;10015;52.530;13.390;2022-11-13T07:55:18;27.80;;;14.77;;
19727;SDS011;10015;52.530;13.390;2022-11-13T07:58:02;27.97;;;14.30;;
19727;SDS011;10015;52.530;13.390;2022-11-13T08:00:48;29.67;;;15.67;;
19727;SDS011;10015;52.530;13.390;2022-11-13T08:03:32;25.60;;;13.10;;
19727;SDS011;10015;52.530;13.390;2022-11-13T08:06:17;26.90;;;13.67;;
19727;SDS011;10015;52.530;13.390;2022-11-13T08:09:02;24.67;;;13.57;;
19727;SDS011;10015;52.530;13.390;2022-11-13T08:11:47;29.67;;;14.47;;
19727;SDS011;10015;52.530;13.390;2022-11-13T08:14:32;28.50;;;14.70;;
19727;SDS011;10015;52.530;13.390;2022-11-13T08:17:16;27.80;;;14.67;;
19727;SDS011;10015;52.530;13.390;2022-11-13T08:20:01;26.97;;;13.60;;
19727;SDS011;10015;52.530;13.390;2022-11-13T08:22:46;24.57;;;12.90;;
19727;SDS011;10015;52.530;13.390;2022-11-13T08:25:31;26.50;;;12.83;;
19727;SDS011;10015;52.530;13.390;2022-11-13T08:28:16;26.83;;;12.63;;
19727;SDS011;10015;52.530;13.390;2022-11-13T08:31:01;25.40;;;12.60;;
19727;SDS011;10015;52.530;13.390;2022-11-13T08:33:47;29.53;;;12.93;;
19727;SDS011;10015;52.530;13.390;2022-11-13T08:36:32;29.67;;;13.80;;
19727;SDS011;10015;52.530;13.390;2022-11-13T08:39:16;25.43;;;12.80;;
19727;SDS011;10015;52.530;13.390;2022-11-13T08:42:04;29.43;;;12.87;;
19727;SDS011;10015;52.530;13.390;2022-11-13T08:44:49;27.97;;;12.87;;
19727;SDS011;10015;52.530;13.390;2022-11-13T08:47:33;26.80;;;12.50;;
19727;SDS011;10015;52.530;13.390;2022-11-13T08:50:18;29.07;;;12.73;;
19727;SDS011;10015;52.530;13.390;2022-11-13T08:53:03;26.13;;;12.43;;
19727;SDS011;10015;52.530;13.390;2022-11-13T08:55:48;28.83;;;13.67;;
19727;SDS011;10015;52.530;13.390;2022-11-13T08:58:34;28.67;;;13.30;;
19727;SDS011;10015;52.530;13.390;2022-11-13T09:01:18;26.03;;;12.57;;
19727;SDS011;10015;52.530;13.390;2022-11-13T09:04:05;24.43;;;12.93;;
19727;SDS011;10015;52.530;13.390;2022-11-13T09:06:51;25.70;;;12.57;;
19727;SDS011;10015;52.530;13.390;2022-11-13T09:09:35;26.70;;;12.73;;
19727;SDS011;10015;52.530;13.390;2022-11-13T09:12:20;29.90;;;14.17;;
19727;SDS011;10015;52.530;13.390;2022-11-13T09:15:04;27.00;;;12.60;;
19727;SDS011;10015;52.530;13.390;2022-11-13T09:17:49;27.20;;;13.67;;
19727;SDS011;10015;52.530;13.390;2022-11-13T09:20:33;31.53;;;14.10;;
19727;SDS011;10015;52.530;13.390;2022-11-13T09:23:18;32.40;;;14.27;;
19727;SDS011;10015;52.530;13.390;2022-11-13T09:26:03;28.67;;;14.23;;
19727;SDS011;10015;52.530;13.390;2022-11-13T09:28:48;31.40;;;14.97;;
19727;SDS011;10015;52.530;13.390;2022-11-13T09:31:32;25.77;;;13.30;;
19727;SDS011;10015;52.530;13.390;2022-11-13T09:34:19;28.80;;;13.10;;
19727;SDS011;10015;52.530;13.390;2022-11-13T09:37:04;30.07;;;14.00;;
19727;SDS011;10015;52.530;13.390;2022-11-13T09:39:49;29.67;;;14.40;;
19727;SDS011;10015;52.530;13.390;2022-11-13T09:42:33;31.27;;;14.87;;
19727;SDS011;10015;52.530;13.390;2022-11-13T09:45:20;30.77;;;15.10;;
19727;SDS011;10015;52.530;13.390;2022-11-13T09:48:16;33.47;;;15.47;;
19727;SDS011;10015;52.530;13.390;2022-11-13T09:51:15;29.17;;;14.97;;
19727;SDS011;10015;52.530;13.390;2022-11-13T09:54:06;27.03;;;14.57;;
19727;SDS011;10015;52.530;13.390;2022-11-13T10:00:09;27.53;;;14.37;;
19727;SDS011;10015;52.530;13.390;2022-11-13T10:03:20;25.10;;;12.33;;
19727;SDS011;10015;52.530;13.390;2022-11-13T10:06:33;23.43;;;13.23;;
19727;SDS011;10015;52.530;13.390;2022-11-13T10:12:35;29.20;;;12.90;;
19727;SDS011;10015;52.530;13.390;2022-11-13T10:15:20;23.00;;;12.33;;
19727;SDS011;10015;52.530;13.390;2022-11-13T10:18:05;22.07;;;12.60;;
19727;SDS011;10015;52.530;13.390;2022-11-13T10:21:05;21.57;;;12.03;;
19727;SDS011;10015;52.530;13.390;2022-11-13T10:24:03;22.90;;;11.53;;
19727;SDS011;10015;52.530;13.390;2022-11-13T10:26:56;21.33;;;11.47;;
19727;SDS011;10015;52.530;13.390;2022-11-13T10:29:42;19.87;;;11.53;;
19727;SDS011;10015;52.530;13.390;2022-11-13T10:32:30;23.87;;;11.30;;
19727;SDS011;10015;52.530;13.390;2022-11-13T10:35:30;19.90;;;11.87;;
19727;SDS011;10015;52.530;13.390;2022-11-13T10:41:27;22.97;;;12.20;;
19727;SDS011;10015;52.530;13.390;2022-11-13T10:44:23;23.43;;;12.53;;
19727;SDS011;10015;52.530;13.390;2022-11-13T10:47:18;21.63;;;12.33;;
19727;SDS011;10015;52.530;13.390;2022-11-13T10:50:11;19.97;;;11.30;;
19727;SDS011;10015;52.530;13.390;2022-11-13T10:53:02;21.93;;;12.10;;
19727;SDS011;10015;52.530;13.390;2022-11-13T10:55:56;25.37;;;12.60;;
19727;SDS011;10015;52.530;13.390;2022-11-13T10:58:43;21.63;;;12.37;;
19727;SDS011;10015;52.530;13.390;2022-11-13T11:01:28;19.07;;;11.90;;
19727;SDS011;10015;52.530;13.390;2022-11-13T11:04:21;24.60;;;12.10;;
19727;SDS011;10015;52.530;13.390;2022-11-13T11:07:11;21.63;;;11.40;;
19727;SDS011;10015;52.530;13.390;2022-11-13T11:10:06;20.77;;;12.43;;
19727;SDS011;10015;52.530;13.390;2022-11-13T11:13:11;19.13;;;11.10;;
19727;SDS011;10015;52.530;13.390;2022-11-13T11:16:03;18.43;;;10.90;;
19727;SDS011;10015;52.530;13.390;2022-11-13T11:18:59;20.93;;;12.10;;
19727;SDS011;10015;52.530;13.390;2022-11-13T11:21:45;22.83;;;12.10;;
19727;SDS011;10015;52.530;13.390;2022-11-13T11:24:34;18.60;;;10.83;;
19727;SDS011;10015;52.530;13.390;2022-11-13T11:27:32;17.60;;;10.30;;
19727;SDS011;10015;52.530;13.390;2022-11-13T11:30:25;17.47;;;10.23;;
19727;SDS011;10015;52.530;13.390;2022-11-13T11:33:16;19.77;;;11.00;;
19727;SDS011;10015;52.530;13.390;2022-11-13T11:42:40;17.17;;;10.70;;
19727;SDS011;10015;52.530;13.390;2022-11-13T11:45:44;21.83;;;11.70;;
19727;SDS011;10015;52.530;13.390;2022-11-13T11:48:30;21.60;;;11.43;;
19727;SDS011;10015;52.530;13.390;2022-11-13T12:00:36;20.00;;;11.70;;
19727;SDS011;10015;52.530;13.390;2022-11-13T12:06:37;19.67;;;10.13;;
19727;SDS011;10015;52.530;13.390;2022-11-13T12:10:08;18.37;;;9.43;;
19727;SDS011;10015;52.530;13.390;2022-11-13T12:12:59;20.00;;;11.03;;
19727;SDS011;10015;52.530;13.390;2022-11-13T12:21:51;19.53;;;10.90;;
19727;SDS011;10015;52.530;13.390;2022-11-13T12:25:51;17.33;;;10.57;;
19727;SDS011;10015;52.530;13.390;2022-11-13T12:28:31;20.43;;;10.87;;
19727;SDS011;10015;52.530;13.390;2022-11-13T12:31:35;20.63;;;10.97;;
19727;SDS011;10015;52.530;13.390;2022-11-13T12:34:52;19.57;;;11.07;;
19727;SDS011;10015;52.530;13.390;2022-11-13T12:46:55;19.67;;;11.07;;
19727;SDS011;10015;52.530;13.390;2022-11-13T12:49:43;17.73;;;11.07;;
19727;SDS011;10015;52.530;13.390;2022-11-13T12:52:27;19.97;;;11.47;;
19727;SDS011;10015;52.530;13.390;2022-11-13T12:55:26;20.30;;;11.57;;
19727;SDS011;10015;52.530;13.390;2022-11-13T12:58:23;19.73;;;11.33;;
19727;SDS011;10015;52.530;13.390;2022-11-13T13:04:00;20.57;;;11.97;;
19727;SDS011;10015;52.530;13.390;2022-11-13T13:16:28;22.50;;;11.63;;
19727;SDS011;10015;52.530;13.390;2022-11-13T13:22:11;21.20;;;11.07;;
19727;SDS011;10015;52.530;13.390;2022-11-13T13:25:24;20.00;;;11.57;;
19727;SDS011;10015;52.530;13.390;2022-11-13T13:28:19;21.30;;;11.70;;
19727;SDS011;10015;52.530;13.390;2022-11-13T13:37:20;18.60;;;11.33;;
19727;SDS011;10015;52.530;13.390;2022-11-13T13:46:36;20.20;;;11.47;;
19727;SDS011;10015;52.530;13.390;2022-11-13T13:49:21;18.70;;;11.57;;
19727;SDS011;10015;52.530;13.390;2022-11-13T13:52:13;20.23;;;11.33;;
19727;SDS011;10015;52.530;13.390;2022-11-13T13:54:59;20.07;;;10.73;;
19727;SDS011;10015;52.530;13.390;2022-11-13T13:57:47;22.80;;;11.70;;
19727;SDS011;10015;52.530;13.390;2022-11-13T14:00:32;18.20;;;10.63;;
19727;SDS011;10015;52.530;13.390;2022-11-13T14:03:18;18.90;;;10.57;;
19727;SDS011;10015;52.530;13.390;2022-11-13T14:06:07;16.40;;;9.67;;
19727;SDS011;10015;52.530;13.390;2022-11-13T14:08:53;20.80;;;11.03;;
19727;SDS011;10015;52.530;13.390;2022-11-13T14:11:38;20.03;;;10.60;;
19727;SDS011;10015;52.530;13.390;2022-11-13T14:14:23;21.53;;;11.10;;
19727;SDS011;10015;52.530;13.390;2022-11-13T14:17:08;18.27;;;9.80;;
19727;SDS011;10015;52.530;13.390;2022-11-13T14:19:55;17.40;;;10.53;;
19727;SDS011;10015;52.530;13.390;2022-11-13T14:22:45;18.10;;;10.63;;
19727;SDS011;10015;52.530;13.390;2022-11-13T14:25:34;20.43;;;10.83;;
19727;SDS011;10015;52.530;13.390;2022-11-13T14:28:23;18.87;;;10.63;;
19727;SDS011;10015;52.530;13.390;2022-11-13T14:31:10;19.10;;;10.67;;
19727;SDS011;10015;52.530;13.390;2022-11-13T14:33:59;16.87;;;10.53;;
19727;SDS011;10015;52.530;13.390;2022-11-13T14:36:45;18.07;;;10.57;;
19727;SDS011;10015;52.530;13.390;2022-11-13T14:39:31;19.93;;;10.90;;
19727;SDS011;10015;52.530;13.390;2022-11-13T14:42:31;20.60;;;10.80;;
19727;SDS011;10015;52.530;13.390;2022-11-13T14:45:28;17.47;;;10.00;;
19727;SDS011;10015;52.530;13.390;2022-11-13T14:51:20;20.47;;;10.63;;
19727;SDS011;10015;52.530;13.390;2022-11-13T14:54:25;18.80;;;9.93;;
19727;SDS011;10015;52.530;13.390;2022-11-13T14:57:13;19.77;;;9.93;;
19727;SDS011;10015;52.530;13.390;2022-11-13T15:00:17;19.60;;;10.67;;
19727;SDS011;10015;52.530;13.390;2022-11-13T15:03:09;20.03;;;11.00;;
19727;SDS011;10015;52.530;13.390;2022-11-13T15:05:53;20.93;;;11.70;;
19727;SDS011;10015;52.530;13.390;2022-11-13T15:08:38;20.40;;;10.93;;
19727;SDS011;10015;52.530;13.390;2022-11-13T15:11:25;19.57;;;10.93;;
19727;SDS011;10015;52.530;13.390;2022-11-13T15:14:14;18.80;;;10.77;;
19727;SDS011;10015;52.530;13.390;2022-11-13T15:17:00;17.47;;;10.70;;
19727;SDS011;10015;52.530;13.390;2022-11-13T15:19:45;19.33;;;11.20;;
19727;SDS011;10015;52.530;13.390;2022-11-13T15:22:31;19.83;;;10.57;;
19727;SDS011;10015;52.530;13.390;2022-11-13T15:25:18;19.07;;;10.30;;
19727;SDS011;10015;52.530;13.390;2022-11-13T15:28:05;19.47;;;11.00;;
19727;SDS011;10015;52.530;13.390;2022-11-13T15:30:50;22.20;;;11.00;;
19727;SDS011;10015;52.530;13.390;2022-11-13T15:33:35;18.43;;;10.90;;
19727;SDS011;10015;52.530;13.390;2022-11-13T15:36:19;18.27;;;10.53;;
19727;SDS011;10015;52.530;13.390;2022-11-13T15:39:05;20.50;;;10.83;;
19727;SDS011;10015;52.530;13.390;2022-11-13T15:41:50;17.30;;;10.57;;
19727;SDS011;10015;52.530;13.390;2022-11-13T15:44:35;21.37;;;10.87;;
19727;SDS011;10015;52.530;13.390;2022-11-13T15:47:24;17.73;;;10.47;;
19727;SDS011;10015;52.530;13.390;2022-11-13T15:50:13;19.30;;;11.00;;
19727;SDS011;10015;52.530;13.390;2022-11-13T15:52:58;20.50;;;11.37;;
19727;SDS011;10015;52.530;13.390;2022-11-13T15:55:43;19.87;;;11.17;;
19727;SDS011;10015;52.530;13.390;2022-11-13T15:58:28;21.60;;;12.07;;
19727;SDS011;10015;52.530;13.390;2022-11-13T16:01:13;20.70;;;11.40;;
19727;SDS011;10015;52.530;13.390;2022-11-13T16:03:58;21.33;;;11.47;;
19727;SDS011;10015;52.530;13.390;2022-11-13T16:06:45;23.73;;;11.80;;
19727;SDS011;10015;52.530;13.390;2022-11-13T16:09:30;22.97;;;11.50;;
19727;SDS011;10015;52.530;13.390;2022-11-13T16:12:16;22.07;;;11.67;;
19727;SDS011;10015;52.530;13.390;2022-11-13T16:15:01;23.70;;;11.37;;
19727;SDS011;10015;52.530;13.390;2022-11-13T16:17:47;21.63;;;11.60;;
19727;SDS011;10015;52.530;13.390;2022-11-13T16:20:36;21.23;;;11.90;;
19727;SDS011;10015;52.530;13.390;2022-11-13T16:23:21;24.57;;;12.30;;
19727;SDS011;10015;52.530;13.390;2022-11-13T16:26:40;26.43;;;13.67;;
19727;SDS011;10015;52.530;13.390;2022-11-13T16:29:18;24.73;;;13.00;;
19727;SDS011;10015;52.530;13.390;2022-11-13T16:32:04;22.30;;;12.83;;
19727;SDS011;10015;52.530;13.390;2022-11-13T16:34:48;22.27;;;12.77;;
19727;SDS011;10015;52.530;13.390;2022-11-13T16:37:33;27.90;;;14.47;;
19727;SDS011;10015;52.530;13.390;2022-11-13T16:40:20;23.80;;;13.50;;
19727;SDS011;10015;52.530;13.390;2022-11-13T16:43:06;30.73;;;14.23;;
19727;SDS011;10015;52.530;13.390;2022-11-13T16:45:51;26.33;;;14.20;;
19727;SDS011;10015;52.530;13.390;2022-11-13T16:48:35;30.47;;;15.50;;
19727;SDS011;10015;52.530;13.390;2022-11-13T16:51:20;29.03;;;14.47;;
19727;SDS011;10015;52.530;13.390;2022-11-13T16:54:06;28.27;;;14.67;;
19727;SDS011;10015;52.530;13.390;2022-11-13T16:56:50;26.10;;;14.87;;
19727;SDS011;10015;52.530;13.390;2022-11-13T16:59:35;25.97;;;14.00;;
19727;SDS011;10015;52.530;13.390;2022-11-13T17:02:19;32.13;;;16.20;;
19727;SDS011;10015;52.530;13.390;2022-11-13T17:05:04;29.20;;;15.00;;
19727;SDS011;10015;52.530;13.390;2022-11-13T17:07:49;30.60;;;15.70;;
19727;SDS011;10015;52.530;13.390;2022-11-13T17:10:39;31.83;;;15.13;;
19727;SDS011;10015;52.530;13.390;2022-11-13T17:13:24;30.87;;;15.30;;
19727;SDS011;10015;52.530;13.390;2022-11-13T17:16:10;35.13;;;16.63;;
19727;SDS011;10015;52.530;13.390;2022-11-13T17:18:56;32.83;;;15.90;;
19727;SDS011;10015;52.530;13.390;2022-11-13T17:21:41;34.27;;;16.50;;
19727;SDS011;10015;52.530;13.390;2022-11-13T17:24:26;35.13;;;17.00;;
19727;SDS011;10015;52.530;13.390;2022-11-13T17:27:10;33.47;;;17.13;;
19727;SDS011;10015;52.530;13.390;2022-11-13T17:29:55;33.60;;;16.50;;
19727;SDS011;10015;52.530;13.390;2022-11-13T17:32:40;31.77;;;16.73;;
19727;SDS011;10015;52.530;13.390;2022-11-13T17:35:24;36.27;;;16.80;;
19727;SDS011;10015;52.530;13.390;2022-11-13T17:38:11;36.70;;;17.17;;
19727;SDS011;10015;52.530;13.390;2022-11-13T17:41:02;33.00;;;16.40;;
19727;SDS011;10015;52.530;13.390;2022-11-13T17:43:53;34.73;;;17.33;;
19727;SDS011;10015;52.530;13.390;2022-11-13T17:46:39;32.00;;;16.33;;
19727;SDS011;10015;52.530;13.390;2022-11-13T17:49:23;35.43;;;16.57;;
19727;SDS011;10015;52.530;13.390;2022-11-13T17:52:08;38.70;;;18.37;;
19727;SDS011;10015;52.530;13.390;2022-11-13T17:54:53;35.87;;;16.87;;
19727;SDS011;10015;52.530;13.390;2022-11-13T17:57:37;37.10;;;17.87;;
19727;SDS011;10015;52.530;13.390;2022-11-13T18:00:22;35.47;;;17.13;;
19727;SDS011;10015;52.530;13.390;2022-11-13T18:03:20;37.90;;;16.47;;
19727;SDS011;10015;52.530;13.390;2022-11-13T18:06:14;32.73;;;15.87;;
19727;SDS011;10015;52.530;13.390;2022-11-13T18:09:06;36.50;;;17.97;;
19727;SDS011;10015;52.530;13.390;2022-11-13T18:11:52;36.57;;;16.93;;
19727;SDS011;10015;52.530;13.390;2022-11-13T18:14:39;37.67;;;16.37;;
19727;SDS011;10015;52.530;13.390;2022-11-13T18:17:43;39.40;;;16.83;;
19727;SDS011;10015;52.530;13.390;2022-11-13T18:20:27;33.73;;;16.33;;
19727;SDS011;10015;52.530;13.390;2022-11-13T18:23:12;38.10;;;17.03;;
19727;SDS011;10015;52.530;13.390;2022-11-13T18:25:57;33.40;;;16.73;;
19727;SDS011;10015;52.530;13.390;2022-11-13T18:28:52;36.33;;;16.33;;
19727;SDS011;10015;52.530;13.390;2022-11-13T18:31:37;32.33;;;15.77;;
19727;SDS011;10015;52.530;13.390;2022-11-13T18:34:22;34.77;;;16.17;;
19727;SDS011;10015;52.530;13.390;2022-11-13T18:37:07;32.20;;;15.67;;
19727;SDS011;10015;52.530;13.390;2022-11-13T18:39:51;32.53;;;15.37;;
19727;SDS011;10015;52.530;13.390;2022-11-13T18:42:36;33.17;;;15.50;;
19727;SDS011;10015;52.530;13.390;2022-11-13T18:45:21;34.47;;;15.03;;
19727;SDS011;10015;52.530;13.390;2022-11-13T18:48:06;30.47;;;14.27;;
19727;SDS011;10015;52.530;13.390;2022-11-13T18:50:57;31.23;;;15.87;;
19727;SDS011;10015;52.530;13.390;2022-11-13T18:53:48;30.13;;;14.30;;
19727;SDS011;10015;52.530;13.390;2022-11-13T18:56:34;28.20;;;13.77;;
19727;SDS011;10015;52.530;13.390;2022-11-13T18:59:19;32.27;;;15.17;;
19727;SDS011;10015;52.530;13.390;2022-11-13T19:02:03;33.50;;;14.90;;
19727;SDS011;10015;52.530;13.390;2022-11-13T19:04:48;31.43;;;14.00;;
19727;SDS011;10015;52.530;13.390;2022-11-13T19:07:33;31.03;;;14.67;;
19727;SDS011;10015;52.530;13.390;2022-11-13T19:10:18;32.00;;;14.53;;
19727;SDS011;10015;52.530;13.390;2022-11-13T19:13:02;28.57;;;14.10;;
19727;SDS011;10015;52.530;13.390;2022-11-13T19:15:47;32.57;;;15.30;;
19727;SDS011;10015;52.530;13.390;2022-11-13T19:18:33;30.63;;;14.67;;
19727;SDS011;10015;52.530;13.390;2022-11-13T19:21:19;34.57;;;15.53;;
19727;SDS011;10015;52.530;13.390;2022-11-13T19:24:05;34.57;;;15.17;;
19727;SDS011;10015;52.530;13.390;2022-11-13T19:26:51;35.57;;;15.10;;
19727;SDS011;10015;52.530;13.390;2022-11-13T19:29:36;33.63;;;15.70;;
19727;SDS011;10015;52.530;13.390;2022-11-13T19:32:20;30.43;;;14.13;;
19727;SDS011;10015;52.530;13.390;2022-11-13T19:35:05;33.23;;;13.20;;
19727;SDS011;10015;52.530;13.390;2022-11-13T19:37:55;31.47;;;15.10;;
19727;SDS011;10015;52.530;13.390;2022-11-13T19:40:44;31.83;;;14.53;;
19727;SDS011;10015;52.530;13.390;2022-11-13T19:43:31;32.93;;;15.33;;
19727;SDS011;10015;52.530;13.390;2022-11-13T19:46:17;30.43;;;15.63;;
19727;SDS011;10015;52.530;13.390;2022-11-13T19:49:02;29.73;;;14.63;;
19727;SDS011;10015;52.530;13.390;2022-11-13T19:51:48;29.87;;;14.53;;
19727;SDS011;10015;52.530;13.390;2022-11-13T19:54:33;29.97;;;14.63;;
19727;SDS011;10015;52.530;13.390;2022-11-13T19:57:18;31.37;;;14.40;;
19727;SDS011;10015;52.530;13.390;2022-11-13T20:00:03;31.47;;;15.03;;
19727;SDS011;10015;52.530;13.390;2022-11-13T20:02:48;34.83;;;15.57;;
19727;SDS011;10015;52.530;13.390;2022-11-13T20:05:33;33.27;;;15.43;;
19727;SDS011;10015;52.530;13.390;2022-11-13T20:08:17;33.23;;;14.53;;
19727;SDS011;10015;52.530;13.390;2022-11-13T20:11:06;30.13;;;14.33;;
19727;SDS011;10015;52.530;13.390;2022-11-13T20:13:55;29.97;;;13.43;;
19727;SDS011;10015;52.530;13.390;2022-11-13T20:16:40;31.93;;;14.97;;
19727;SDS011;10015;52.530;13.390;2022-11-13T20:19:25;33.00;;;15.03;;
19727;SDS011;10015;52.530;13.390;2022-11-13T20:22:10;29.30;;;13.53;;
19727;SDS011;10015;52.530;13.390;2022-11-13T20:24:55;31.93;;;15.07;;
19727;SDS011;10015;52.530;13.390;2022-11-13T20:27:40;29.30;;;14.77;;
19727;SDS011;10015;52.530;13.390;2022-11-13T20:30:24;31.13;;;15.17;;
19727;SDS011;10015;52.530;13.390;2022-11-13T20:33:09;32.13;;;15.60;;
19727;SDS011;10015;52.530;13.390;2022-11-13T20:35:53;28.80;;;14.83;;
19727;SDS011;10015;52.530;13.390;2022-11-13T20:38:39;30.17;;;14.77;;
19727;SDS011;10015;52.530;13.390;2022-11-13T20:41:24;29.73;;;14.07;;
19727;SDS011;10015;52.530;13.390;2022-11-13T20:44:09;32.60;;;14.67;;
19727;SDS011;10015;52.530;13.390;2022-11-13T20:46:55;30.73;;;15.00;;
19727;SDS011;10015;52.530;13.390;2022-11-13T20:49:43;29.30;;;13.90;;
19727;SDS011;10015;52.530;13.390;2022-11-13T20:52:29;31.43;;;15.50;;
19727;SDS011;10015;52.530;13.390;2022-11-13T20:55:15;32.37;;;14.73;;
19727;SDS011;10015;52.530;13.390;2022-11-13T20:58:07;30.17;;;14.73;;
19727;SDS011;10015;52.530;13.390;2022-11-13T21:01:01;29.10;;;13.87;;
19727;SDS011;10015;52.530;13.390;2022-11-13T21:03:47;32.20;;;15.37;;
19727;SDS011;10015;52.530;13.390;2022-11-13T21:06:32;35.50;;;15.67;;
19727;SDS011;10015;52.530;13.390;2022-11-13T21:09:18;33.17;;;15.10;;
19727;SDS011;10015;52.530;13.390;2022-11-13T21:12:05;36.30;;;16.40;;
19727;SDS011;10015;52.530;13.390;2022-11-13T21:14:50;32.20;;;15.47;;
19727;SDS011;10015;52.530;13.390;2022-11-13T21:17:35;34.03;;;14.93;;
19727;SDS011;10015;52.530;13.390;2022-11-13T21:20:20;36.37;;;15.70;;
19727;SDS011;10015;52.530;13.390;2022-11-13T21:23:04;30.80;;;15.03;;
19727;SDS011;10015;52.530;13.390;2022-11-13T21:25:56;33.33;;;15.53;;
19727;SDS011;10015;52.530;13.390;2022-11-13T21:28:42;32.67;;;15.33;;
19727;SDS011;10015;52.530;13.390;2022-11-13T21:31:27;31.13;;;14.90;;
19727;SDS011;10015;52.530;13.390;2022-11-13T21:34:12;34.23;;;15.60;;
19727;SDS011;10015;52.530;13.390;2022-11-13T21:36:56;34.27;;;15.47;;
19727;SDS011;10015;52.530;13.390;2022-11-13T21:39:41;31.13;;;14.47;;
19727;SDS011;10015;52.530;13.390;2022-11-13T21:42:26;35.20;;;16.00;;
19727;SDS011;10015;52.530;13.390;2022-11-13T21:45:10;35.10;;;15.83;;
19727;SDS011;10015;52.530;13.390;2022-11-13T21:47:55;37.23;;;17.07;;
19727;SDS011;10015;52.530;13.390;2022-11-13T21:50:40;39.50;;;17.20;;
19727;SDS011;10015;52.530;13.390;2022-11-13T21:53:24;42.97;;;18.77;;
19727;SDS011;10015;52.530;13.390;2022-11-13T21:56:09;42.20;;;19.17;;
19727;SDS011;10015;52.530;13.390;2022-11-13T21:58:54;45.23;;;20.53;;
19727;SDS011;10015;52.530;13.390;2022-11-13T22:01:38;50.37;;;21.27;;
19727;SDS011;10015;52.530;13.390;2022-11-13T22:04:24;48.70;;;20.63;;
19727;SDS011;10015;52.530;13.390;2022-11-13T22:07:10;51.87;;;22.23;;
19727;SDS011;10015;52.530;13.390;2022-11-13T22:09:55;54.13;;;22.07;;
19727;SDS011;10015;52.530;13.390;2022-11-13T22:12:42;60.83;;;24.00;;
19727;SDS011;10015;52.530;13.390;2022-11-13T22:15:27;57.00;;;22.23;;
19727;SDS011;10015;52.530;13.390;2022-11-13T22:18:12;56.03;;;22.60;;
19727;SDS011;10015;52.530;13.390;2022-11-13T22:21:05;57.53;;;22.70;;
19727;SDS011;10015;52.530;13.390;2022-11-13T22:23:51;55.50;;;22.13;;
19727;SDS011;10015;52.530;13.390;2022-11-13T22:26:37;62.00;;;23.77;;
19727;SDS011;10015;52.530;13.390;2022-11-13T22:29:28;53.37;;;23.77;;
19727;SDS011;10015;52.530;13.390;2022-11-13T22:32:13;56.50;;;23.57;;
19727;SDS011;10015;52.530;13.390;2022-11-13T22:34:58;59.83;;;24.03;;
19727;SDS011;10015;52.530;13.390;2022-11-13T22:37:42;58.03;;;24.33;;
19727;SDS011;10015;52.530;13.390;2022-11-13T22:40:27;61.77;;;24.17;;
19727;SDS011;10015;52.530;13.390;2022-11-13T22:43:11;64.53;;;25.07;;
19727;SDS011;10015;52.530;13.390;2022-11-13T22:45:59;63.87;;;24.97;;
19727;SDS011;10015;52.530;13.390;2022-11-13T22:48:49;63.43;;;24.97;;
19727;SDS011;10015;52.530;13.390;2022-11-13T22:51:36;63.17;;;25.43;;
19727;SDS011;10015;52.530;13.390;2022-11-13T22:54:21;62.47;;;26.13;;
19727;SDS011;10015;52.530;13.390;2022-11-13T22:57:06;62.97;;;25.33;;
19727;SDS011;10015;52.530;13.390;2022-11-13T22:59:51;65.60;;;25.37;;
19727;SDS011;10015;52.530;13.390;2022-11-13T23:02:36;66.07;;;26.57;;
19727;SDS011;10015;52.530;13.390;2022-11-13T23:05:20;63.77;;;25.80;;
19727;SDS011;10015;52.530;13.390;2022-11-13T23:08:05;62.43;;;25.17;;
19727;SDS011;10015;52.530;13.390;2022-11-13T23:10:50;68.37;;;26.33;;
19727;SDS011;10015;52.530;13.390;2022-11-13T23:13:38;65.57;;;26.17;;
19727;SDS011;10015;52.530;13.390;2022-11-13T23:16:25;66.37;;;25.30;;
19727;SDS011;10015;52.530;13.390;2022-11-13T23:19:10;65.53;;;26.50;;
19727;SDS011;10015;52.530;13.390;2022-11-13T23:21:56;64.83;;;25.00;;
19727;SDS011;10015;52.530;13.390;2022-11-13T23:24:40;60.80;;;25.07;;
19727;SDS011;10015;52.530;13.390;2022-11-13T23:27:24;65.53;;;25.77;;
19727;SDS011;10015;52.530;13.390;2022-11-13T23:30:09;62.83;;;25.70;;
19727;SDS011;10015;52.530;13.390;2022-11-13T23:32:54;65.70;;;26.80;;
19727;SDS011;10015;52.530;13.390;2022-11-13T23:35:39;63.57;;;25.33;;
19727;SDS011;10015;52.530;13.390;2022-11-13T23:38:24;66.83;;;25.93;;
19727;SDS011;10015;52.530;13.390;2022-11-13T23:41:09;70.33;;;27.93;;
19727;SDS011;10015;52.530;13.390;2022-11-13T23:43:54;67.03;;;25.37;;
19727;SDS011;10015;52.530;13.390;2022-11-13T23:46:39;60.70;;;25.63;;
19727;SDS011;10015;52.530;13.390;2022-11-13T23:49:23;70.57;;;26.27;;
19727;SDS011;10015;52.530;13.390;2022-11-13T23:52:08;71.23;;;27.30;;
19727;SDS011;10015;52.530;13.390;2022-11-13T23:54:52;69.70;;;25.50;;